Flugplatz Wyk auf Föhr

Für EDXY sind keine METAR/TAF Berichte vorhanden.
Es werden die Flugwettermeldungen vom Flugplatz Westerland Sylt in 27 km Entfernung angezeigt.

Bericht für EDXW

vom 27.09. um 00:50 UTC

Wind 17 kt aus 40°

Sichtweite 10 km oder mehr

bedeckt in 1100 ft

Temperatur 16.0°C

Taupunkt 14.0°C

Luftfeuchtigkeit 88%

Luftdruck 999 hPa

EDXW 270050Z AUTO 04017KT 9999 // OVC011/// 16/14 Q0999
Keine Prognose (TAF) verfügbar.
Impressum